Cobb County-Mc Collum Field
KRYY : rendu visible

Aérodrome :











RETROUVEZ-NOUS SUR...

 
LOGIN :

S'inscrire | Disclaimer

   EN    FR    IT 

 









Légende :    VFR   VFR Marginal   IFR   IFR Intensif   IFR Très Intensif
Visi : 
Plafond : 
>= 8 km
>= 3000ft
5 à 8 km
1000 à 3000 ft
1500m à 5 km
500 à 1000 ft
800 à 1500m
200 à 500 ft
< 800m
< 200 ft
Symboles :   Orages  Brouillard  Fortes neiges  Fortes précipitations  Vent > 20 kt






- Altitude de l'aérodrome : 1040 ft


KRYY - Cobb County-Mc Collum Field

DERNIER METAR :
  • 150750Z AUTO 00000KT 6SM -RA BR SCT005 BKN080 OVC095 06/05 A3020 RMK AO2 SLP947 P0000 T00560050 $

METARs EXPIRÉS :
  • 150740Z AUTO 02003KT 7SM -RA FEW003 SCT041 OVC085 06/05 A3020 RMK AO2 P0000 $
  • 150703Z AUTO 00000KT 5SM -RA BR BKN003 BKN017 OVC080 06/05 A3021 RMK AO2 P0000 $
  • 150550Z AUTO 00000KT 5SM -RA BR FEW004 BKN070 OVC085 05/05 A3022 RMK AO2 SLP956 P0000 60000 T00500050 10061 20050 58010 $
  • 150502Z AUTO 00000KT 4SM -RA BR FEW003 BKN036 OVC065 05/05 A3024 RMK AO2 P0000 $

TAF KRYY
Valide du 15 à 08h jusqu'au 16 à 06h UTC


150730Z 1508/1606 03004KT 4SM -RA BR BKN006 OVC016
TEMPO 1508/1512 2SM -RADZ BR OVC004
FM151400 34005KT 6SM -RA BR SCT006 OVC010
FM151700 33007KT P6SM VCSH SCT020 OVC035
FM152100 34007KT P6SM BKN040



MET'MAP, la Météo Aéronautique d'un coup d'oeil ! - Copyright ORBIFLY Décembre 2007 - Disclaimer

ORBIFLY MET'MAP TEAM :

Programmation & Développement : Alexandra Zaïnal
Conception & Développement : Baudouin d'Aumeries
Co-Programmation & Développement : Marc-Olivier Méhu
Soutien technique & logistique : Manuel Goepfert

Contact : metmap@orbifly.com




SOURCES & CREDITS :

   NOAA       Earth
Advisory